createdAt,value
2019-04-29T00:00:59.213Z,14.50
2019-04-29T00:02:01.904Z,14.40
2019-04-29T00:03:04.589Z,14.20
2019-04-29T00:04:07.377Z,14.10
2019-04-29T00:05:10.561Z,14.10
2019-04-29T00:06:13.220Z,14.10
2019-04-29T00:07:15.885Z,14.10
2019-04-29T00:08:18.525Z,14.10
2019-04-29T00:09:21.741Z,14.10
2019-04-29T00:10:25.371Z,14.00
2019-04-29T00:11:28.014Z,14.00
2019-04-29T00:12:31.125Z,14.00
2019-04-29T00:13:34.235Z,13.90
2019-04-29T00:14:38.468Z,13.90
2019-04-29T00:15:52.730Z,13.90
2019-04-29T00:17:01.712Z,13.90
2019-04-29T00:18:09.339Z,13.90
2019-04-29T00:19:29.874Z,13.90
2019-04-29T00:20:40.880Z,13.90
2019-04-29T00:21:43.538Z,14.00
2019-04-29T00:22:46.514Z,14.00
2019-04-29T00:23:57.194Z,14.00
2019-04-29T00:24:53.789Z,14.00
2019-04-29T00:25:56.487Z,14.00
2019-04-29T00:26:59.570Z,14.10
2019-04-29T00:28:02.757Z,14.10
2019-04-29T00:29:05.439Z,14.10
2019-04-29T00:30:10.913Z,14.10
2019-04-29T00:31:14.201Z,14.00
2019-04-29T00:32:16.873Z,14.00
2019-04-29T00:33:22.425Z,14.00
2019-04-29T00:34:25.138Z,14.00
2019-04-29T00:35:28.378Z,13.90
2019-04-29T00:36:36.997Z,14.00
2019-04-29T00:38:04.825Z,14.00
2019-04-29T00:39:25.460Z,14.00
2019-04-29T00:40:45.618Z,14.10
2019-04-29T00:42:10.566Z,14.10
2019-04-29T00:43:20.975Z,14.00
2019-04-29T00:44:24.118Z,14.00
2019-04-29T00:45:26.745Z,13.90
2019-04-29T00:46:29.525Z,13.80
2019-04-29T00:47:32.229Z,13.80
2019-04-29T00:48:35.425Z,13.90
2019-04-29T00:49:38.713Z,13.80
2019-04-29T00:50:41.429Z,13.80
2019-04-29T00:51:44.089Z,13.70
2019-04-29T00:52:47.642Z,13.70
2019-04-29T00:53:52.419Z,13.80
2019-04-29T00:55:01.221Z,13.70
2019-04-29T00:56:04.941Z,13.80
2019-04-29T00:57:07.993Z,13.70
2019-04-29T00:58:10.638Z,13.70
2019-04-29T00:59:13.289Z,13.70
2019-04-29T01:00:25.573Z,13.70
2019-04-29T01:01:28.414Z,13.70
2019-04-29T01:02:31.354Z,13.70
2019-04-29T01:03:33.977Z,13.60
2019-04-29T01:04:36.766Z,13.60
2019-04-29T01:05:39.436Z,13.70
2019-04-29T01:06:42.101Z,13.60
2019-04-29T01:07:44.780Z,13.60
2019-04-29T01:08:47.416Z,13.70
2019-04-29T01:09:50.074Z,13.70
2019-04-29T01:10:52.989Z,13.70
2019-04-29T01:11:55.641Z,13.70
2019-04-29T01:12:58.321Z,13.70
2019-04-29T01:14:00.973Z,13.70
2019-04-29T01:15:04.398Z,13.70
2019-04-29T01:16:07.036Z,13.70
2019-04-29T01:17:09.692Z,13.70
2019-04-29T01:18:12.525Z,13.70
2019-04-29T01:19:15.624Z,13.70
2019-04-29T01:20:18.394Z,13.70
2019-04-29T01:21:21.042Z,13.70
2019-04-29T01:22:24.042Z,13.70
2019-04-29T01:23:26.890Z,13.70
2019-04-29T01:24:29.626Z,13.70
2019-04-29T01:25:32.503Z,13.70
2019-04-29T01:27:03.504Z,13.60
2019-04-29T01:28:16.225Z,13.50
2019-04-29T01:29:19.409Z,13.50
2019-04-29T01:30:57.653Z,13.40
2019-04-29T01:32:00.660Z,13.40
2019-04-29T01:33:03.805Z,13.40
2019-04-29T01:34:15.764Z,13.50
2019-04-29T01:35:18.409Z,13.40
2019-04-29T01:36:29.899Z,13.40
2019-04-29T01:37:37.787Z,13.40
2019-04-29T01:38:40.444Z,13.40
2019-04-29T01:39:48.554Z,13.40
2019-04-29T01:41:04.412Z,13.30
2019-04-29T01:42:12.767Z,13.30
2019-04-29T01:43:15.434Z,13.30
2019-04-29T01:44:18.093Z,13.30
2019-04-29T01:45:21.161Z,13.30
2019-04-29T01:46:23.805Z,13.30
2019-04-29T01:47:26.737Z,13.40
2019-04-29T01:48:29.477Z,13.40
2019-04-29T01:49:32.363Z,13.40
2019-04-29T01:50:35.033Z,13.40
2019-04-29T01:51:37.740Z,13.40
2019-04-29T01:52:40.392Z,13.50
2019-04-29T01:53:43.914Z,13.50
2019-04-29T01:54:46.590Z,13.50
2019-04-29T01:55:49.285Z,13.60
2019-04-29T01:56:51.935Z,13.70
2019-04-29T01:57:55.212Z,13.60
2019-04-29T01:58:57.813Z,13.70
2019-04-29T02:00:00.452Z,13.70
2019-04-29T02:01:03.119Z,13.70
2019-04-29T02:02:06.235Z,13.70
2019-04-29T02:03:09.430Z,13.70
2019-04-29T02:04:12.137Z,13.60
2019-04-29T02:05:14.807Z,13.60
2019-04-29T02:06:17.506Z,13.50
2019-04-29T02:07:20.071Z,13.50
2019-04-29T02:08:22.717Z,13.60
2019-04-29T02:09:38.999Z,13.60
2019-04-29T02:10:41.580Z,13.60
2019-04-29T02:11:44.685Z,13.50
2019-04-29T02:12:47.322Z,13.50
2019-04-29T02:13:49.953Z,13.60
2019-04-29T02:14:52.674Z,13.60
2019-04-29T02:15:55.690Z,13.60
2019-04-29T02:16:58.334Z,13.60
2019-04-29T02:18:00.999Z,13.70
2019-04-29T02:19:03.642Z,13.60
2019-04-29T02:20:06.993Z,13.60
2019-04-29T02:21:09.654Z,13.60
2019-04-29T02:22:34.593Z,13.60
2019-04-29T02:23:51.665Z,13.50
2019-04-29T02:24:58.001Z,13.40
2019-04-29T02:26:00.661Z,13.40
2019-04-29T02:27:05.696Z,13.40
2019-04-29T02:28:08.032Z,13.50
2019-04-29T02:29:10.675Z,13.50
2019-04-29T02:30:30.205Z,13.40
2019-04-29T02:31:38.941Z,13.40
2019-04-29T02:32:42.384Z,13.40
2019-04-29T02:33:45.029Z,13.40
2019-04-29T02:34:47.682Z,13.50
2019-04-29T02:35:50.372Z,13.50
2019-04-29T02:36:53.486Z,13.50
2019-04-29T02:37:56.149Z,13.50
2019-04-29T02:39:26.934Z,13.50
2019-04-29T02:40:36.726Z,13.50
2019-04-29T02:41:57.812Z,13.50
2019-04-29T02:43:06.697Z,13.50
2019-04-29T02:44:09.846Z,13.50
2019-04-29T02:45:19.591Z,13.60
2019-04-29T02:46:22.945Z,13.60
2019-04-29T02:47:25.620Z,13.70
2019-04-29T02:48:30.239Z,13.80
2019-04-29T02:49:32.873Z,13.80
2019-04-29T02:50:35.554Z,13.80
2019-04-29T02:52:03.566Z,13.90
2019-04-29T02:53:06.285Z,13.90
2019-04-29T02:54:09.542Z,13.90
2019-04-29T02:55:15.561Z,13.90
2019-04-29T02:56:18.213Z,13.90
2019-04-29T02:57:27.650Z,14.00
2019-04-29T02:58:59.276Z,14.00
2019-04-29T03:00:11.300Z,14.00
2019-04-29T03:01:42.424Z,13.90
2019-04-29T03:02:57.094Z,13.90
2019-04-29T03:04:15.203Z,13.90
2019-04-29T03:05:26.305Z,13.90
2019-04-29T03:06:28.996Z,13.90
2019-04-29T03:07:32.488Z,13.90
2019-04-29T03:08:35.170Z,13.90
2019-04-29T03:09:44.448Z,13.90
2019-04-29T03:10:47.130Z,14.00
2019-04-29T03:11:50.343Z,14.00
2019-04-29T03:12:53.393Z,14.00
2019-04-29T03:13:56.059Z,13.90
2019-04-29T03:14:59.341Z,13.90
2019-04-29T03:16:02.474Z,13.90
2019-04-29T03:17:05.149Z,13.90
2019-04-29T03:18:07.808Z,13.90
2019-04-29T03:19:16.941Z,13.90
2019-04-29T03:20:28.579Z,14.00
2019-04-29T03:21:35.483Z,13.90
2019-04-29T03:22:38.326Z,13.90
2019-04-29T03:23:40.970Z,13.80
2019-04-29T03:24:44.194Z,13.80
2019-04-29T03:25:47.183Z,13.70
2019-04-29T03:26:49.827Z,13.70
2019-04-29T03:27:52.505Z,13.60
2019-04-29T03:28:55.562Z,13.50
2019-04-29T03:29:58.420Z,13.50
2019-04-29T03:31:01.293Z,13.50
2019-04-29T03:32:03.983Z,13.50
2019-04-29T03:33:06.598Z,13.50
2019-04-29T03:34:09.514Z,13.50
2019-04-29T03:35:12.246Z,13.50
2019-04-29T03:36:14.983Z,13.50
2019-04-29T03:37:17.617Z,13.60
2019-04-29T03:38:20.749Z,13.60
2019-04-29T03:39:23.383Z,13.60
2019-04-29T03:40:26.246Z,13.60
2019-04-29T03:41:28.935Z,13.60
2019-04-29T03:42:31.678Z,13.50
2019-04-29T03:43:34.439Z,13.60
2019-04-29T03:44:37.306Z,13.60
2019-04-29T03:45:39.973Z,13.60
2019-04-29T03:46:43.022Z,13.60
2019-04-29T03:47:45.774Z,13.60
2019-04-29T03:48:48.432Z,13.60
2019-04-29T03:49:51.080Z,13.60
2019-04-29T03:50:54.308Z,13.60
2019-04-29T03:51:56.978Z,13.60
2019-04-29T03:52:59.654Z,13.60
2019-04-29T03:54:02.378Z,13.70
2019-04-29T03:55:05.724Z,13.60
2019-04-29T03:56:08.382Z,13.70
2019-04-29T03:57:12.382Z,13.70
2019-04-29T03:58:15.025Z,13.60
2019-04-29T03:59:17.809Z,13.70
2019-04-29T04:00:20.425Z,13.70
2019-04-29T04:01:28.858Z,13.70
2019-04-29T04:02:38.066Z,13.80
2019-04-29T04:03:45.045Z,13.80
2019-04-29T04:05:00.841Z,13.80
2019-04-29T04:06:31.844Z,13.80
2019-04-29T04:07:59.596Z,13.80
2019-04-29T04:09:19.469Z,13.80
2019-04-29T04:10:22.217Z,13.80
2019-04-29T04:11:24.868Z,13.80
2019-04-29T04:12:30.778Z,13.80
2019-04-29T04:13:33.471Z,13.70
2019-04-29T04:14:36.192Z,13.70
2019-04-29T04:15:38.839Z,13.70
2019-04-29T04:17:20.280Z,13.70
2019-04-29T04:18:27.956Z,13.70
2019-04-29T04:19:31.265Z,13.70
2019-04-29T04:20:33.965Z,13.70
2019-04-29T04:21:36.976Z,13.70
2019-04-29T04:22:46.081Z,13.70
2019-04-29T04:23:48.728Z,13.70
2019-04-29T04:24:52.235Z,13.70
2019-04-29T04:25:55.542Z,13.80
2019-04-29T04:26:58.181Z,13.80
2019-04-29T04:28:00.808Z,13.90
2019-04-29T04:29:03.465Z,13.90
2019-04-29T04:30:07.158Z,13.90
2019-04-29T04:31:09.838Z,13.90
2019-04-29T04:32:12.473Z,13.80
2019-04-29T04:33:15.119Z,13.70
2019-04-29T04:34:18.228Z,13.80
2019-04-29T04:35:20.920Z,13.80
2019-04-29T04:36:23.902Z,13.80
2019-04-29T04:37:26.811Z,13.90
2019-04-29T04:38:29.869Z,13.90
2019-04-29T04:39:34.935Z,13.80
2019-04-29T04:40:41.778Z,13.80
2019-04-29T04:41:44.347Z,13.70
2019-04-29T04:42:47.520Z,13.70
2019-04-29T04:43:50.230Z,13.70
2019-04-29T04:44:52.880Z,13.80
2019-04-29T04:45:55.561Z,13.80
2019-04-29T04:46:58.562Z,13.70
2019-04-29T04:48:01.262Z,13.70
2019-04-29T04:49:03.905Z,13.70
2019-04-29T04:50:07.657Z,13.70
2019-04-29T04:51:10.322Z,13.70
2019-04-29T04:52:16.036Z,13.70
2019-04-29T04:53:18.712Z,13.70
2019-04-29T04:54:21.354Z,13.60
2019-04-29T04:55:26.896Z,13.70
2019-04-29T04:56:29.852Z,13.70
2019-04-29T04:57:32.520Z,13.70
2019-04-29T04:58:35.219Z,13.70
2019-04-29T04:59:37.857Z,13.80
2019-04-29T05:00:41.171Z,13.80
2019-04-29T05:01:43.830Z,13.80
2019-04-29T05:02:46.504Z,13.90
2019-04-29T05:03:49.169Z,13.90
2019-04-29T05:04:52.750Z,13.90
2019-04-29T05:05:55.427Z,13.90
2019-04-29T05:06:58.073Z,13.80
2019-04-29T05:08:00.766Z,13.80
2019-04-29T05:09:06.578Z,13.80
2019-04-29T05:10:09.346Z,13.80
2019-04-29T05:11:12.052Z,13.90
2019-04-29T05:12:14.769Z,13.80
2019-04-29T05:13:27.932Z,13.80
2019-04-29T05:14:23.041Z,13.80
2019-04-29T05:15:25.724Z,13.80
2019-04-29T05:16:28.421Z,13.90
2019-04-29T05:17:31.235Z,13.90
2019-04-29T05:18:34.206Z,13.90
2019-04-29T05:19:36.878Z,14.00
2019-04-29T05:20:39.536Z,14.00
2019-04-29T05:21:42.615Z,14.00
2019-04-29T05:23:00.393Z,14.00
2019-04-29T05:24:03.123Z,14.00
2019-04-29T05:25:06.273Z,14.10
2019-04-29T05:26:09.506Z,14.10
2019-04-29T05:27:12.364Z,14.20
2019-04-29T05:28:15.018Z,14.20
2019-04-29T05:29:17.773Z,14.20
2019-04-29T05:30:20.959Z,14.20
2019-04-29T05:31:24.300Z,14.20
2019-04-29T05:32:26.938Z,14.20
2019-04-29T05:33:29.633Z,14.20
2019-04-29T05:34:34.089Z,14.20
2019-04-29T05:35:43.557Z,14.20
2019-04-29T05:37:05.653Z,14.30
2019-04-29T05:38:15.589Z,14.30
2019-04-29T05:39:27.500Z,14.30
2019-04-29T05:40:41.008Z,14.20
2019-04-29T05:41:43.600Z,14.20
2019-04-29T05:42:48.267Z,14.20
2019-04-29T05:43:58.528Z,14.20
2019-04-29T05:45:21.801Z,14.10
2019-04-29T05:46:35.708Z,14.10
2019-04-29T05:47:57.137Z,14.10
2019-04-29T05:48:57.282Z,14.10
2019-04-29T05:50:18.515Z,14.00
2019-04-29T05:51:40.854Z,14.00
2019-04-29T05:52:51.822Z,13.90
2019-04-29T05:53:55.980Z,13.80
2019-04-29T05:55:01.446Z,13.80
2019-04-29T05:56:04.245Z,13.80
2019-04-29T05:57:07.141Z,13.90
2019-04-29T05:58:12.504Z,13.90
2019-04-29T05:59:15.232Z,13.90
2019-04-29T06:00:23.192Z,13.90
2019-04-29T06:01:25.332Z,13.90
2019-04-29T06:02:33.652Z,13.90
2019-04-29T06:03:33.526Z,13.90
2019-04-29T06:04:37.289Z,14.00
2019-04-29T06:05:40.175Z,14.00
2019-04-29T06:06:42.870Z,14.00
2019-04-29T06:07:45.609Z,14.00
2019-04-29T06:08:48.289Z,14.00
2019-04-29T06:09:51.501Z,14.00
2019-04-29T06:10:54.541Z,14.10
2019-04-29T06:11:57.207Z,14.20
2019-04-29T06:12:59.942Z,14.20
2019-04-29T06:14:02.879Z,14.20
2019-04-29T06:15:05.810Z,14.20
2019-04-29T06:16:08.470Z,14.20
2019-04-29T06:17:11.159Z,14.20
2019-04-29T06:18:17.685Z,14.20
2019-04-29T06:19:18.774Z,14.20
2019-04-29T06:20:22.893Z,14.30
2019-04-29T06:21:25.637Z,14.30
2019-04-29T06:22:28.727Z,14.30
2019-04-29T06:23:31.385Z,14.30
2019-04-29T06:24:36.897Z,14.30
2019-04-29T06:25:38.557Z,14.40
2019-04-29T06:26:43.619Z,14.50
2019-04-29T06:27:45.837Z,14.50
2019-04-29T06:28:48.536Z,14.60
2019-04-29T06:29:51.494Z,14.60
2019-04-29T06:30:54.183Z,14.60
2019-04-29T06:31:56.972Z,14.70
2019-04-29T06:32:59.649Z,14.80
2019-04-29T06:34:05.223Z,14.80
2019-04-29T06:35:10.533Z,14.80
2019-04-29T06:36:11.546Z,14.80
2019-04-29T06:37:14.237Z,14.90
2019-04-29T06:38:16.923Z,14.90
2019-04-29T06:39:19.612Z,14.90
2019-04-29T06:40:22.520Z,14.90
2019-04-29T06:41:25.319Z,15.00
2019-04-29T06:42:27.971Z,15.00
2019-04-29T06:43:30.819Z,15.00
2019-04-29T06:44:33.496Z,15.00
2019-04-29T06:45:36.181Z,15.00
2019-04-29T06:46:38.922Z,15.10
2019-04-29T06:47:41.737Z,15.10
2019-04-29T06:48:44.439Z,15.10
2019-04-29T06:49:47.092Z,15.10
2019-04-29T06:50:49.934Z,15.20
2019-04-29T06:51:52.718Z,15.20
2019-04-29T06:52:55.442Z,15.20
2019-04-29T06:53:58.104Z,15.30
2019-04-29T06:55:00.774Z,15.30
2019-04-29T06:56:03.530Z,15.30
2019-04-29T06:57:06.414Z,15.30
2019-04-29T06:58:09.102Z,15.30
2019-04-29T06:59:13.641Z,15.30
2019-04-29T07:00:17.672Z,15.30
2019-04-29T07:01:20.945Z,15.40
2019-04-29T07:02:24.145Z,15.40
2019-04-29T07:03:26.857Z,15.40
2019-04-29T07:04:30.714Z,15.40
2019-04-29T07:05:33.957Z,15.50
2019-04-29T07:06:36.621Z,15.50
2019-04-29T07:07:39.349Z,15.50
2019-04-29T07:08:42.002Z,15.60
2019-04-29T07:09:44.673Z,15.60
2019-04-29T07:10:47.313Z,15.70
2019-04-29T07:11:50.004Z,15.70
2019-04-29T07:12:52.676Z,15.80
2019-04-29T07:13:57.597Z,15.80
2019-04-29T07:15:00.294Z,15.80
2019-04-29T07:16:03.114Z,15.80
2019-04-29T07:17:07.142Z,15.80
2019-04-29T07:18:09.968Z,15.80
2019-04-29T07:19:12.903Z,15.90
2019-04-29T07:20:16.427Z,15.90
2019-04-29T07:21:19.160Z,15.90
2019-04-29T07:22:25.883Z,16.00
2019-04-29T07:23:26.389Z,16.00
2019-04-29T07:24:29.139Z,16.00
2019-04-29T07:25:31.834Z,16.10
2019-04-29T07:26:34.512Z,16.10
2019-04-29T07:27:42.975Z,16.10
2019-04-29T07:28:41.717Z,16.10
2019-04-29T07:29:44.357Z,16.20
2019-04-29T07:31:01.238Z,16.20
2019-04-29T07:31:51.477Z,16.20
2019-04-29T07:32:54.147Z,16.30
2019-04-29T07:33:58.001Z,16.30
2019-04-29T07:35:01.381Z,16.30
2019-04-29T07:36:10.817Z,16.30
2019-04-29T07:37:08.636Z,16.30
2019-04-29T07:38:11.281Z,16.30
2019-04-29T07:39:13.971Z,16.30
2019-04-29T07:40:17.059Z,16.30
2019-04-29T07:41:20.842Z,16.30
2019-04-29T07:42:25.030Z,16.30
2019-04-29T07:43:28.004Z,16.40
2019-04-29T07:44:43.626Z,16.40
2019-04-29T07:45:58.739Z,16.40
2019-04-29T07:47:02.278Z,16.40
2019-04-29T07:48:06.319Z,16.40
2019-04-29T07:49:12.869Z,16.40
2019-04-29T07:50:14.441Z,16.50
2019-04-29T07:51:17.104Z,16.50
2019-04-29T07:52:19.776Z,16.50
2019-04-29T07:53:34.538Z,16.60
2019-04-29T07:54:27.216Z,16.60
2019-04-29T07:55:30.979Z,16.60
2019-04-29T07:56:37.774Z,16.60
2019-04-29T07:57:38.951Z,16.60
2019-04-29T07:58:41.927Z,16.60
2019-04-29T07:59:44.617Z,16.60
2019-04-29T08:00:48.854Z,16.50
2019-04-29T08:01:55.664Z,16.50
2019-04-29T08:02:56.957Z,16.40
2019-04-29T08:03:59.612Z,16.40
2019-04-29T08:05:02.285Z,16.50
2019-04-29T08:06:05.905Z,16.50
2019-04-29T08:07:08.951Z,16.60
2019-04-29T08:08:11.659Z,16.60
2019-04-29T08:09:14.385Z,16.60
2019-04-29T08:10:23.718Z,16.60
2019-04-29T08:11:24.689Z,16.60
2019-04-29T08:12:29.432Z,16.60
2019-04-29T08:13:32.864Z,16.60
2019-04-29T08:14:37.065Z,16.60
2019-04-29T08:15:41.424Z,16.60
2019-04-29T08:16:44.813Z,16.60
2019-04-29T08:17:47.584Z,16.70
2019-04-29T08:18:53.567Z,16.70
2019-04-29T08:19:54.981Z,16.80
2019-04-29T08:20:57.741Z,16.80
2019-04-29T08:22:00.542Z,16.90
2019-04-29T08:23:04.157Z,16.90
2019-04-29T08:24:07.234Z,16.80
2019-04-29T08:25:10.201Z,16.80
2019-04-29T08:26:12.882Z,16.80
2019-04-29T08:27:15.601Z,16.90
2019-04-29T08:28:18.248Z,16.90
2019-04-29T08:29:21.261Z,16.80
2019-04-29T08:30:23.913Z,16.80
2019-04-29T08:31:26.619Z,16.80
2019-04-29T08:32:31.587Z,16.80
2019-04-29T08:33:34.540Z,16.90
2019-04-29T08:34:37.257Z,16.90
2019-04-29T08:35:39.893Z,16.90
2019-04-29T08:36:42.531Z,16.90
2019-04-29T08:37:45.849Z,17.00
2019-04-29T08:38:48.492Z,17.00
2019-04-29T08:40:08.343Z,17.00
2019-04-29T08:40:55.628Z,17.00
2019-04-29T08:42:03.736Z,16.90
2019-04-29T08:43:29.060Z,17.00
2019-04-29T08:44:59.675Z,17.00
2019-04-29T08:46:06.270Z,17.10
2019-04-29T08:47:16.260Z,17.00
2019-04-29T08:48:18.960Z,17.00
2019-04-29T08:49:22.039Z,17.00
2019-04-29T08:50:25.101Z,17.00
2019-04-29T08:51:27.829Z,17.00
2019-04-29T08:52:30.570Z,17.00
2019-04-29T08:53:33.200Z,17.10
2019-04-29T08:54:37.255Z,17.10
2019-04-29T08:55:40.026Z,17.20
2019-04-29T08:57:01.732Z,17.20
2019-04-29T08:57:47.297Z,17.20
2019-04-29T08:58:51.158Z,17.10
2019-04-29T08:59:53.943Z,17.10
2019-04-29T09:00:57.631Z,17.10
2019-04-29T09:02:00.450Z,17.20
2019-04-29T09:03:03.251Z,17.20
2019-04-29T09:04:06.165Z,17.20
2019-04-29T09:05:11.400Z,17.20
2019-04-29T09:06:13.995Z,17.20
2019-04-29T09:07:17.455Z,17.30
2019-04-29T09:08:21.583Z,17.30
2019-04-29T09:09:29.310Z,17.30
2019-04-29T09:10:33.028Z,17.30
2019-04-29T09:11:35.943Z,17.30
2019-04-29T09:12:38.903Z,17.30
2019-04-29T09:13:41.648Z,17.30
2019-04-29T09:14:44.313Z,17.30
2019-04-29T09:15:47.032Z,17.30
2019-04-29T09:16:50.417Z,17.30
2019-04-29T09:17:53.095Z,17.30
2019-04-29T09:18:55.801Z,17.40
2019-04-29T09:19:58.508Z,17.40
2019-04-29T09:21:01.477Z,17.50
2019-04-29T09:22:06.433Z,17.50
2019-04-29T09:23:11.845Z,17.50
2019-04-29T09:24:14.677Z,17.60
2019-04-29T09:25:37.000Z,17.60
2019-04-29T09:26:44.530Z,17.60
2019-04-29T09:27:47.655Z,17.50
2019-04-29T09:28:50.469Z,17.40
2019-04-29T09:29:54.209Z,17.50
2019-04-29T09:30:57.659Z,17.50
2019-04-29T09:32:00.497Z,17.50
2019-04-29T09:33:03.241Z,17.50
2019-04-29T09:34:07.110Z,17.60
2019-04-29T09:35:10.305Z,17.70
2019-04-29T09:36:13.855Z,17.70
2019-04-29T09:37:18.662Z,17.70
2019-04-29T09:38:22.369Z,17.80
2019-04-29T09:39:25.045Z,17.80
2019-04-29T09:40:29.608Z,17.70
2019-04-29T09:41:39.850Z,17.70
2019-04-29T09:43:00.829Z,17.80
2019-04-29T09:44:41.085Z,17.70
2019-04-29T09:46:18.514Z,17.70
2019-04-29T09:47:21.421Z,17.70
2019-04-29T09:48:24.093Z,17.50
2019-04-29T09:49:26.749Z,17.50
2019-04-29T09:50:29.433Z,17.40
2019-04-29T09:51:32.645Z,17.40
2019-04-29T09:52:35.317Z,17.30
2019-04-29T09:53:38.060Z,17.30
2019-04-29T09:54:40.776Z,17.20
2019-04-29T09:55:43.793Z,17.20
2019-04-29T09:56:46.537Z,17.30
2019-04-29T09:57:49.241Z,17.20
2019-04-29T09:59:11.356Z,17.20
2019-04-29T10:00:22.949Z,17.20
2019-04-29T10:01:36.410Z,17.10
2019-04-29T10:03:04.237Z,17.10
2019-04-29T10:04:26.572Z,17.10
2019-04-29T10:05:41.602Z,17.00
2019-04-29T10:06:45.075Z,16.90
2019-04-29T10:07:47.725Z,17.00
2019-04-29T10:08:50.981Z,17.00
2019-04-29T10:09:57.282Z,17.00
2019-04-29T10:10:58.186Z,17.00
2019-04-29T10:12:00.854Z,17.00
2019-04-29T10:13:04.657Z,17.10
2019-04-29T10:14:08.293Z,17.10
2019-04-29T10:15:12.977Z,17.10
2019-04-29T10:16:23.140Z,17.20
2019-04-29T10:17:36.408Z,17.30
2019-04-29T10:18:55.382Z,17.30
2019-04-29T10:20:03.079Z,17.40
2019-04-29T10:21:08.325Z,17.40
2019-04-29T10:22:11.110Z,17.40
2019-04-29T10:23:13.798Z,17.40
2019-04-29T10:24:16.486Z,17.40
2019-04-29T10:25:19.274Z,17.40
2019-04-29T10:26:22.412Z,17.40
2019-04-29T10:27:25.072Z,17.40
2019-04-29T10:28:27.739Z,17.50
2019-04-29T10:29:31.464Z,17.50
2019-04-29T10:30:34.526Z,17.50
2019-04-29T10:31:37.281Z,17.50
2019-04-29T10:32:42.373Z,17.50
2019-04-29T10:33:44.410Z,17.50
2019-04-29T10:34:47.677Z,17.40
2019-04-29T10:35:50.369Z,17.40
2019-04-29T10:36:53.754Z,17.40
2019-04-29T10:37:56.498Z,17.30
2019-04-29T10:39:04.661Z,17.30
2019-04-29T10:40:32.829Z,17.30
2019-04-29T10:41:40.391Z,17.30
2019-04-29T10:42:51.633Z,17.30
2019-04-29T10:44:12.446Z,17.30
2019-04-29T10:45:34.508Z,17.30
2019-04-29T10:46:59.505Z,17.30
2019-04-29T10:48:13.281Z,17.30
2019-04-29T10:49:21.862Z,17.20
2019-04-29T10:50:30.662Z,17.20
2019-04-29T10:51:33.421Z,17.20
2019-04-29T10:52:38.618Z,17.10
2019-04-29T10:53:41.582Z,17.20
2019-04-29T10:54:44.266Z,17.10
2019-04-29T10:55:47.115Z,17.20
2019-04-29T10:56:50.209Z,17.20
2019-04-29T10:57:53.100Z,17.20
2019-04-29T10:58:55.942Z,17.20
2019-04-29T11:00:05.864Z,17.20
2019-04-29T11:02:13.325Z,17.10
2019-04-29T11:03:11.393Z,17.10
2019-04-29T11:04:14.074Z,16.90
2019-04-29T11:05:34.677Z,16.90
2019-04-29T11:06:37.453Z,16.90
2019-04-29T11:07:40.439Z,16.90
2019-04-29T11:08:53.140Z,16.80
2019-04-29T11:09:59.833Z,16.80
2019-04-29T11:11:02.807Z,16.80
2019-04-29T11:12:08.928Z,16.70
2019-04-29T11:13:11.623Z,16.70
2019-04-29T11:14:14.325Z,16.70
2019-04-29T11:15:19.062Z,16.70
2019-04-29T11:16:23.073Z,16.80
2019-04-29T11:17:27.133Z,16.80
2019-04-29T11:18:30.425Z,16.80
2019-04-29T11:19:35.152Z,16.80
2019-04-29T11:20:37.889Z,16.90
2019-04-29T11:21:40.540Z,16.90
2019-04-29T11:22:48.966Z,16.90
2019-04-29T11:24:22.821Z,16.90
2019-04-29T11:25:43.415Z,17.00
2019-04-29T11:26:51.337Z,17.00
2019-04-29T11:27:56.153Z,16.90
2019-04-29T11:28:59.202Z,16.90
2019-04-29T11:30:02.944Z,16.90
2019-04-29T11:31:09.874Z,16.90
2019-04-29T11:41:06.629Z,16.70
2019-04-29T11:42:09.336Z,16.70
2019-04-29T11:43:15.614Z,16.80
2019-04-29T11:44:17.186Z,16.70
2019-04-29T11:45:20.410Z,16.70
2019-04-29T11:46:23.390Z,16.70
2019-04-29T11:47:26.336Z,16.80
2019-04-29T11:48:29.030Z,16.80
2019-04-29T11:49:51.222Z,16.80
2019-04-29T11:51:02.019Z,16.80
2019-04-29T11:52:09.651Z,16.80
2019-04-29T11:53:11.289Z,16.80
2019-04-29T11:54:17.956Z,16.80
2019-04-29T11:55:20.126Z,16.90
2019-04-29T11:56:22.831Z,16.80
2019-04-29T11:57:41.038Z,16.90
2019-04-29T11:58:48.951Z,16.90
2019-04-29T12:00:17.746Z,16.90
2019-04-29T12:01:38.826Z,16.90
2019-04-29T12:02:48.057Z,16.90
2019-04-29T12:03:51.571Z,16.90
2019-04-29T12:05:03.838Z,16.90
2019-04-29T12:06:06.017Z,16.90
2019-04-29T12:07:08.729Z,16.90
2019-04-29T12:08:16.759Z,16.90
2019-04-29T12:09:16.041Z,16.90
2019-04-29T12:10:19.001Z,16.90
2019-04-29T12:11:22.890Z,16.90
2019-04-29T12:12:25.689Z,16.80
2019-04-29T12:13:46.408Z,16.80
2019-04-29T12:15:03.617Z,16.80
2019-04-29T12:16:19.617Z,16.80
2019-04-29T12:17:26.510Z,16.80
2019-04-29T12:18:34.029Z,16.80
2019-04-29T12:19:38.159Z,16.80
2019-04-29T12:20:48.077Z,16.80
2019-04-29T12:21:50.851Z,16.80
2019-04-29T12:22:56.569Z,16.80
2019-04-29T12:24:00.929Z,16.80
2019-04-29T12:25:04.723Z,16.80
2019-04-29T12:26:07.387Z,16.80
2019-04-29T12:27:14.911Z,16.70
2019-04-29T12:28:19.243Z,16.60
2019-04-29T12:29:20.090Z,16.60
2019-04-29T12:30:25.706Z,16.60
2019-04-29T12:31:44.821Z,16.50
2019-04-29T12:33:09.189Z,16.50
2019-04-29T12:34:21.958Z,16.50
2019-04-29T12:35:34.354Z,16.40
2019-04-29T12:36:54.851Z,16.40
2019-04-29T12:38:05.906Z,16.40
2019-04-29T12:39:42.216Z,16.50
2019-04-29T12:40:50.188Z,16.50
2019-04-29T12:42:17.105Z,16.50
2019-04-29T12:43:41.790Z,16.50
2019-04-29T12:44:49.674Z,16.60
2019-04-29T12:46:10.373Z,16.50
2019-04-29T12:47:32.566Z,16.60
2019-04-29T12:48:35.234Z,16.60
2019-04-29T12:49:38.108Z,16.60
2019-04-29T12:50:41.016Z,16.70
2019-04-29T12:51:43.647Z,16.60
2019-04-29T12:52:46.586Z,16.70
2019-04-29T12:53:49.641Z,16.70
2019-04-29T12:54:52.515Z,16.80
2019-04-29T12:55:56.579Z,16.80
2019-04-29T12:56:59.270Z,16.80
2019-04-29T12:58:01.925Z,16.80
2019-04-29T12:59:05.479Z,16.90
2019-04-29T13:00:11.172Z,16.90
2019-04-29T13:01:49.782Z,16.90
2019-04-29T13:02:50.965Z,16.90
2019-04-29T13:04:05.519Z,16.80
2019-04-29T13:05:13.185Z,16.80
2019-04-29T13:06:23.974Z,16.80
2019-04-29T13:07:51.070Z,16.80
2019-04-29T13:08:55.901Z,16.80
2019-04-29T13:10:02.053Z,16.70
2019-04-29T13:11:06.237Z,16.80
2019-04-29T13:12:18.931Z,16.80
2019-04-29T13:13:15.689Z,16.80
2019-04-29T13:14:19.518Z,16.90
2019-04-29T13:15:43.946Z,17.00
2019-04-29T13:16:59.905Z,17.00
2019-04-29T13:18:23.417Z,17.00
2019-04-29T13:19:45.999Z,17.10
2019-04-29T13:20:50.636Z,17.20
2019-04-29T13:21:52.776Z,17.10
2019-04-29T13:22:59.017Z,17.10
2019-04-29T13:24:13.515Z,17.10
2019-04-29T13:25:07.293Z,17.20
2019-04-29T13:26:10.025Z,17.10
2019-04-29T13:27:16.340Z,17.20
2019-04-29T13:28:29.549Z,17.10
2019-04-29T13:29:27.380Z,17.20
2019-04-29T13:30:26.386Z,17.20
2019-04-29T13:31:38.228Z,17.10
2019-04-29T13:32:35.621Z,17.10
2019-04-29T13:33:38.499Z,17.10
2019-04-29T13:34:43.183Z,17.20
2019-04-29T13:35:48.598Z,17.10
2019-04-29T13:37:06.024Z,17.10
2019-04-29T13:37:55.301Z,17.20
2019-04-29T13:38:58.052Z,17.20
2019-04-29T13:40:00.762Z,17.10
2019-04-29T13:41:13.254Z,17.10
2019-04-29T13:42:15.368Z,17.10
2019-04-29T13:43:16.196Z,17.10
2019-04-29T13:44:19.731Z,17.10
2019-04-29T13:45:29.469Z,17.00
2019-04-29T13:46:53.971Z,17.00
2019-04-29T13:48:24.446Z,17.00
2019-04-29T13:49:34.698Z,16.90
2019-04-29T13:50:45.405Z,16.90
2019-04-29T13:51:48.118Z,16.80
2019-04-29T13:52:50.817Z,16.80
2019-04-29T13:53:55.456Z,16.80
2019-04-29T13:55:16.249Z,16.80
2019-04-29T13:56:11.638Z,16.90
2019-04-29T13:57:14.987Z,16.90
2019-04-29T13:58:13.152Z,16.90
2019-04-29T13:59:21.965Z,17.00
2019-04-29T14:00:44.190Z,17.00
2019-04-29T14:02:01.221Z,17.00
2019-04-29T14:03:01.549Z,16.90
2019-04-29T14:04:26.519Z,16.90
2019-04-29T14:05:32.428Z,17.00
2019-04-29T14:06:35.673Z,16.90
2019-04-29T14:07:39.576Z,16.90
2019-04-29T14:08:43.353Z,16.90
2019-04-29T14:09:47.866Z,17.00
2019-04-29T14:10:51.180Z,17.00
2019-04-29T14:12:04.284Z,17.10
2019-04-29T14:13:10.847Z,17.10
2019-04-29T14:14:06.445Z,17.10
2019-04-29T14:15:09.218Z,17.10
2019-04-29T14:16:13.028Z,17.10
2019-04-29T14:17:25.935Z,17.20
2019-04-29T14:18:21.153Z,17.20
2019-04-29T14:19:40.554Z,17.30